Time;durP1;ratioP1;P1;durP2;ratioP2;P2;SDS_P1;SDS_P2;PMS_P1;PMS_P2;Temp;Humidity;BMP_temperature;BMP_pressure;BME280_temperature;BME280_humidity;BME280_pressure;Samples;Min_cycle;Max_cycle;Signal;HPM_P1;HPM_P2
2021/11/09 00:01:15;;;;;;;1.67;1.60;;;;;;;0.86;100.00;99703.31;4876481;29;20033;-74
2021/11/09 00:03:59;;;;;;;1.90;1.80;;;;;;;0.84;100.00;99704.97;4878253;29;20479;-74
2021/11/09 00:06:27;;;;;;;2.15;1.60;;;;;;;0.76;100.00;99713.19;4878056;29;20029;-74
2021/11/09 00:08:57;;;;;;;1.90;1.80;;;;;;;0.67;100.00;99707.75;4878129;29;20033;-74
2021/11/09 00:11:25;;;;;;;5.47;2.58;;;;;;;0.69;100.00;99715.50;4881589;29;20454;-76
2021/11/09 00:13:51;;;;;;;1.00;1.00;;;;;;;0.67;100.00;99706.91;4888907;29;20398;-76
2021/11/09 00:16:17;;;;;;;1.65;1.65;;;;;;;0.65;100.00;99711.94;4896661;29;20033;-76
2021/11/09 00:18:42;;;;;;;1.08;1.08;;;;;;;0.66;100.00;99713.69;4897000;29;20036;-76
2021/11/09 00:21:08;;;;;;;1.70;1.60;;;;;;;0.61;100.00;99710.09;4896515;29;20031;-76
2021/11/09 00:23:34;;;;;;;2.10;2.00;;;;;;;0.69;100.00;99716.34;4896632;29;20084;-76
2021/11/09 00:25:59;;;;;;;1.38;1.38;;;;;;;0.67;100.00;99715.41;4889031;29;20036;-76
2021/11/09 00:28:24;;;;;;;1.40;1.40;;;;;;;0.68;100.00;99709.53;4877612;29;20039;-75
2021/11/09 00:30:50;;;;;;;1.55;1.48;;;;;;;0.77;100.00;99709.84;4877935;29;20394;-76
2021/11/09 00:33:15;;;;;;;1.60;1.52;;;;;;;0.66;100.00;99717.91;4880681;29;20080;-76
2021/11/09 00:35:40;;;;;;;1.98;1.85;;;;;;;0.70;100.00;99717.22;4881625;29;20033;-76
2021/11/09 00:38:09;;;;;;;2.78;2.08;;;;;;;0.65;100.00;99714.50;4881440;29;20036;-76
2021/11/09 00:40:37;;;;;;;1.37;1.27;;;;;;;0.66;100.00;99718.78;4880826;29;20060;-76
2021/11/09 00:43:04;;;;;;;1.58;1.52;;;;;;;0.74;100.00;99713.97;4881845;29;20146;-76
2021/11/09 00:45:29;;;;;;;1.58;1.48;;;;;;;0.71;100.00;99724.91;4900242;29;20466;-76
2021/11/09 00:47:56;;;;;;;2.17;1.92;;;;;;;0.71;100.00;99724.91;4900215;29;20039;-76
2021/11/09 00:50:23;;;;;;;1.67;1.58;;;;;;;0.77;100.00;99725.16;4883682;29;20372;-76
2021/11/09 00:52:48;;;;;;;1.10;1.10;;;;;;;0.87;100.00;99728.00;4879809;29;20045;-76
2021/11/09 00:55:14;;;;;;;1.48;1.48;;;;;;;0.84;100.00;99730.47;4881059;29;20033;-76
2021/11/09 00:57:44;;;;;;;2.60;1.77;;;;;;;0.87;100.00;99731.47;4881191;29;20033;-76
2021/11/09 05:16:10;;;;;;;1.30;1.30;;;;;;;0.45;100.00;99751.16;5509804;23;20053;-71
2021/11/09 05:18:36;;;;;;;4.50;1.27;;;;;;;0.38;100.00;99756.81;4879602;29;20041;-71
2021/11/09 05:21:01;;;;;;;1.52;1.48;;;;;;;0.35;100.00;99751.59;4880747;29;20051;-71
2021/11/09 05:23:27;;;;;;;1.88;1.77;;;;;;;0.30;100.00;99755.66;4880585;29;20035;-70
2021/11/09 05:25:52;;;;;;;1.40;1.40;;;;;;;0.32;100.00;99751.47;4880709;29;20344;-71
2021/11/09 05:28:19;;;;;;;1.63;1.58;;;;;;;0.34;100.00;99750.75;4880724;29;20474;-71
2021/11/09 05:30:48;;;;;;;1.75;1.63;;;;;;;0.28;100.00;99747.06;4881095;29;20053;-74
2021/11/09 05:33:14;;;;;;;3.58;2.10;;;;;;;0.21;100.00;99745.97;4880595;29;20406;-74
2021/11/09 05:35:39;;;;;;;2.10;2.03;;;;;;;0.14;100.00;99755.03;4880449;29;20033;-75
2021/11/09 05:38:08;;;;;;;1.40;1.38;;;;;;;0.15;100.00;99756.81;4880558;29;20043;-74
2021/11/09 05:40:36;;;;;;;1.35;1.35;;;;;;;0.21;100.00;99751.94;4879186;29;20028;-75
2021/11/09 05:43:03;;;;;;;1.33;1.33;;;;;;;0.27;100.00;99747.88;4888696;29;20043;-74
2021/11/09 05:45:29;;;;;;;1.98;1.88;;;;;;;0.30;100.00;99756.53;4899006;29;20095;-74
2021/11/09 05:47:56;;;;;;;1.52;1.52;;;;;;;0.37;100.00;99757.63;4899179;29;20031;-74
2021/11/09 05:50:22;;;;;;;2.85;2.65;;;;;;;0.46;100.00;99757.97;4897847;29;20032;-74
2021/11/09 05:52:47;;;;;;;1.52;1.42;;;;;;;0.46;100.00;99763.06;4898820;29;20030;-74
2021/11/09 05:55:13;;;;;;;2.65;1.25;;;;;;;0.43;100.00;99760.41;4898875;29;20696;-74
2021/11/09 05:57:39;;;;;;;0.82;0.82;;;;;;;0.27;100.00;99765.72;4898903;29;20415;-75
2021/11/09 06:00:07;;;;;;;2.30;2.00;;;;;;;0.14;100.00;99774.56;4898896;29;20111;-74
2021/11/09 06:02:33;;;;;;;1.80;1.70;;;;;;;0.08;100.00;99775.19;4898575;29;20557;-75
2021/11/09 06:04:58;;;;;;;1.20;1.20;;;;;;;0.06;100.00;99776.81;4898880;29;20029;-75
2021/11/09 06:07:23;;;;;;;1.92;1.83;;;;;;;0.16;100.00;99773.81;4898533;29;20032;-75
2021/11/09 06:09:49;;;;;;;1.45;1.40;;;;;;;0.10;100.00;99781.22;4898801;29;20406;-75
2021/11/09 06:12:14;;;;;;;2.28;2.17;;;;;;;0.11;100.00;99775.31;4894248;29;20034;-75
2021/11/09 06:14:39;;;;;;;1.73;1.63;;;;;;;0.15;100.00;99784.84;4893242;29;20032;-75
2021/11/09 06:17:05;;;;;;;4.57;2.45;;;;;;;0.13;100.00;99778.78;4898177;29;20025;-75
2021/11/09 06:19:30;;;;;;;2.53;2.33;;;;;;;0.14;100.00;99784.75;4897221;29;20096;-75
2021/11/09 06:21:55;;;;;;;0.80;0.80;;;;;;;0.04;100.00;99787.75;4898229;29;20493;-75
2021/11/09 06:24:23;;;;;;;1.50;1.50;;;;;;;0.03;100.00;99791.09;4898322;29;20032;-75
2021/11/09 06:26:49;;;;;;;0.88;0.88;;;;;;;0.04;100.00;99790.28;4898327;29;20088;-75
2021/11/09 06:29:15;;;;;;;1.13;1.13;;;;;;;0.17;100.00;99792.53;4897894;29;20523;-75
2021/11/09 06:31:41;;;;;;;1.30;1.20;;;;;;;0.14;100.00;99798.34;4898192;29;20036;-75
2021/11/09 06:34:07;;;;;;;1.75;1.65;;;;;;;0.19;100.00;99796.88;4898082;29;20029;-74
2021/11/09 06:36:33;;;;;;;2.35;2.25;;;;;;;0.24;100.00;99803.03;4897934;29;20099;-75
2021/11/09 06:38:58;;;;;;;1.20;1.20;;;;;;;0.29;100.00;99805.75;4898129;29;20032;-75
2021/11/09 06:41:24;;;;;;;2.40;2.20;;;;;;;0.38;100.00;99811.19;4896283;29;20036;-73
2021/11/09 06:43:49;;;;;;;1.80;1.70;;;;;;;0.45;100.00;99804.69;4890085;29;20115;-73
2021/11/09 06:46:15;;;;;;;1.30;1.30;;;;;;;0.46;100.00;99808.97;4897926;29;20038;-73
2021/11/09 06:48:42;;;;;;;3.05;2.75;;;;;;;0.48;100.00;99810.78;4897873;29;20032;-72
2021/11/09 06:51:07;;;;;;;1.33;1.23;;;;;;;0.44;100.00;99815.69;4897762;29;20032;-72
2021/11/09 06:53:32;;;;;;;2.38;2.15;;;;;;;0.54;100.00;99812.69;4897748;29;20033;-72
2021/11/09 06:55:58;;;;;;;1.77;1.52;;;;;;;0.77;100.00;99814.44;4897653;29;20032;-71
2021/11/09 06:58:23;;;;;;;1.65;1.15;;;;;;;0.75;100.00;99818.59;4897792;29;20179;-71
2021/11/09 07:00:49;;;;;;;2.25;2.15;;;;;;;0.74;100.00;99816.84;4896472;29;20402;-71
2021/11/09 07:03:14;;;;;;;3.95;3.03;;;;;;;0.84;100.00;99822.31;4896399;29;20129;-71
2021/11/09 07:05:40;;;;;;;2.00;1.17;;;;;;;0.96;100.00;99822.75;4897403;29;20478;-71
2021/11/09 07:08:05;;;;;;;1.77;1.67;;;;;;;1.00;100.00;99819.50;4897679;29;20103;-75
2021/11/09 07:10:31;;;;;;;1.00;1.00;;;;;;;1.18;100.00;99822.72;4897573;29;20314;-71
2021/11/09 07:12:56;;;;;;;2.03;1.92;;;;;;;1.16;100.00;99832.03;4887884;29;20470;-71
2021/11/09 07:15:22;;;;;;;1.38;1.38;;;;;;;1.17;100.00;99843.97;4897198;29;20051;-73
2021/11/09 07:17:48;;;;;;;1.08;1.08;;;;;;;1.09;100.00;99840.25;4897543;29;20132;-75
2021/11/09 07:20:17;;;;;;;0.95;0.95;;;;;;;1.31;100.00;99843.63;4896058;29;20024;-75
2021/11/09 07:22:45;;;;;;;2.92;2.70;;;;;;;1.36;100.00;99855.72;4897436;29;20025;-71
2021/11/09 07:25:11;;;;;;;1.33;1.30;;;;;;;1.44;100.00;99849.19;4897222;29;20039;-71
2021/11/09 07:27:37;;;;;;;7.03;3.47;;;;;;;1.54;100.00;99858.03;4897287;29;20028;-75
2021/11/09 07:30:05;;;;;;;2.78;1.73;;;;;;;1.44;99.86;99859.41;4897354;29;20032;-75
2021/11/09 07:32:31;;;;;;;1.52;1.40;;;;;;;1.48;99.73;99860.38;4895833;29;20479;-75
2021/11/09 07:34:56;;;;;;;2.97;2.80;;;;;;;1.46;99.15;99856.91;4897296;29;20236;-75
2021/11/09 07:37:22;;;;;;;2.00;1.92;;;;;;;1.45;99.38;99860.25;4896974;29;20466;-76
2021/11/09 07:39:48;;;;;;;3.25;2.60;;;;;;;1.53;99.33;99869.94;4896039;29;20028;-71
2021/11/09 07:42:15;;;;;;;3.33;3.08;;;;;;;1.38;99.42;99871.94;4892299;29;20510;-71
2021/11/09 07:44:40;;;;;;;3.03;1.40;;;;;;;1.42;99.71;99871.25;4891939;29;20036;-71
2021/11/09 07:47:06;;;;;;;1.52;1.42;;;;;;;1.75;99.71;99874.13;4895806;29;20040;-72
2021/11/09 07:49:31;;;;;;;1.73;1.65;;;;;;;1.66;98.71;99876.38;4897039;29;20036;-74
2021/11/09 07:51:57;;;;;;;3.05;2.83;;;;;;;2.10;97.70;99874.47;4897059;29;20111;-73
2021/11/09 07:54:32;;;;;;;2.30;2.13;;;;;;;3.03;92.84;99868.88;4895876;29;20024;-76
2021/11/09 07:57:01;;;;;;;2.63;2.42;;;;;;;5.65;82.69;99847.88;4895945;29;20084;-75
2021/11/09 08:02:23;;;;;;;1.83;1.73;;;;;;;8.03;66.18;99839.28;4897125;29;20061;-71
2021/11/09 08:04:54;;;;;;;2.55;2.45;;;;;;;9.68;59.65;99845.50;4897038;29;20040;-71
2021/11/09 08:07:30;;;;;;;8.27;1.80;;;;;;;11.03;55.09;99830.84;4896867;29;20406;-72
2021/11/09 08:09:56;;;;;;;3.22;2.65;;;;;;;11.90;52.89;99830.47;4897010;29;20025;-72
2021/11/09 08:12:21;;;;;;;2.65;2.45;;;;;;;14.42;47.37;99825.88;4891204;29;20025;-74
2021/11/09 08:14:47;;;;;;;2.55;2.15;;;;;;;14.09;46.40;99828.97;4887772;29;20032;-72
2021/11/09 08:17:15;;;;;;;8.18;2.17;;;;;;;14.55;44.40;99833.50;4871283;29;20087;-76
2021/11/09 08:19:40;;;;;;;2.10;1.90;;;;;;;15.75;41.28;99831.16;4877990;29;20064;-76
2021/11/09 08:22:06;;;;;;;1.92;1.58;;;;;;;15.22;42.76;99836.59;4878082;29;20479;-72
2021/11/09 08:24:31;;;;;;;3.95;2.67;;;;;;;15.38;42.90;99839.75;4877999;29;20061;-73
2021/11/09 08:26:58;;;;;;;4.38;2.80;;;;;;;16.52;39.91;99841.53;4877955;29;20539;-72
2021/11/09 08:29:27;;;;;;;4.53;2.50;;;;;;;17.40;38.08;99832.22;4878069;29;20372;-72
2021/11/09 08:31:57;;;;;;;2.30;2.10;;;;;;;18.09;35.63;99831.03;4878064;29;20029;-76
2021/11/09 08:34:23;;;;;;;;;;;;;;;18.67;34.60;99836.97;4877208;29;20032;-76
2021/11/09 08:36:49;;;;;;;2.47;2.17;;;;;;;17.94;35.55;99839.38;4877934;29;19915;-75
2021/11/09 08:39:21;;;;;;;3.67;2.25;;;;;;;19.23;35.31;99830.66;4877911;29;20033;-72
2021/11/09 08:41:57;;;;;;;2.92;2.58;;;;;;;19.24;34.62;99838.50;4876747;29;20498;-76
2021/11/09 08:44:26;;;;;;;2.17;1.80;;;;;;;19.01;33.94;99835.84;4877945;29;20112;-74
2021/11/09 08:46:56;;;;;;;2.10;1.55;;;;;;;17.42;36.89;99835.66;4884908;29;20024;-72
2021/11/09 08:49:24;;;;;;;2.53;2.08;;;;;;;17.73;37.04;99831.25;4881614;29;20029;-72
2021/11/09 08:51:51;;;;;;;3.22;2.10;;;;;;;17.10;37.67;99831.31;4896364;29;20036;-73
2021/11/09 08:54:25;;;;;;;1.60;1.48;;;;;;;16.60;39.12;99830.88;4898186;29;20115;-76
2021/11/09 09:05:13;;;;;;;2.15;1.92;;;;;;;19.17;34.75;99823.00;4900162;29;20051;-76
2021/11/09 09:07:39;;;;;;;1.43;1.33;;;;;;;19.50;33.61;99828.78;4899887;29;20044;-76
2021/11/09 09:10:07;;;;;;;4.60;3.20;;;;;;;18.50;34.83;99815.69;4899934;29;20690;-73
2021/11/09 09:12:35;;;;;;;3.30;1.87;;;;;;;19.83;33.25;99821.41;4898422;29;20029;-72
2021/11/09 09:15:03;;;;;;;2.72;1.55;;;;;;;19.73;32.64;99815.66;4899693;29;20396;-72
2021/11/09 09:17:30;;;;;;;2.47;1.77;;;;;;;18.68;35.10;99828.22;4880478;29;20028;-76
2021/11/09 09:19:59;;;;;;;1.10;0.95;;;;;;;19.51;33.38;99827.88;4896424;29;20041;-74
2021/11/09 09:22:36;;;;;;;2.33;1.30;;;;;;;21.05;30.84;99821.59;4899539;29;20035;-72
2021/11/09 09:52:21;;;;;;;3.50;1.50;;;;;;;18.24;35.06;99812.16;4898893;29;20040;-76
2021/11/09 09:57:22;;;;;;;1.83;1.58;;;;;;;17.17;37.37;99804.94;4898855;29;20036;-74
2021/11/09 09:59:49;;;;;;;2.45;1.60;;;;;;;16.86;38.98;99810.13;4898725;29;20028;-76
2021/11/09 10:02:16;;;;;;;4.45;1.35;;;;;;;19.41;33.86;99802.84;4898699;29;20029;-72
2021/11/09 10:04:50;;;;;;;1.50;0.73;;;;;;;18.51;35.15;99801.66;4897947;29;20028;-72
2021/11/09 10:07:30;;;;;;;2.30;1.02;;;;;;;17.44;36.60;99805.88;4897495;29;20052;-76
2021/11/09 10:09:57;;;;;;;4.03;1.27;;;;;;;18.02;35.14;99802.41;4898642;29;20039;-73
2021/11/09 10:12:31;;;;;;;1.77;1.10;;;;;;;17.02;38.10;99809.72;4898580;29;20052;-74
2021/11/09 10:14:58;;;;;;;5.80;1.70;;;;;;;17.65;34.84;99801.78;4897442;29;20052;-76
2021/11/09 10:17:26;;;;;;;0.52;0.52;;;;;;;15.92;39.05;99802.91;4887566;29;20032;-75
2021/11/09 10:19:57;;;;;;;0.73;0.60;;;;;;;16.05;37.28;99809.56;4894753;29;20398;-76
2021/11/09 10:22:31;;;;;;;3.78;1.35;;;;;;;16.64;37.79;99799.38;4898324;29;20168;-72
2021/11/09 10:25:01;;;;;;;5.20;1.15;;;;;;;17.61;35.64;99797.53;4896907;29;20028;-75
2021/11/09 10:27:29;;;;;;;3.22;1.52;;;;;;;15.35;39.65;99809.34;4898452;29;20376;-73
2021/11/09 10:29:56;;;;;;;2.42;0.98;;;;;;;15.75;38.83;99799.81;4898356;29;20565;-74
2021/11/09 10:32:28;;;;;;;2.97;0.60;;;;;;;13.35;42.28;99810.91;4898150;29;20111;-74
2021/11/09 10:34:57;;;;;;;1.08;0.95;;;;;;;14.22;42.13;99800.13;4898150;29;20040;-75
2021/11/09 10:37:28;;;;;;;0.70;0.57;;;;;;;15.53;39.15;99792.41;4898017;29;20033;-74
2021/11/09 10:39:58;;;;;;;0.32;0.32;;;;;;;15.28;37.95;99789.47;4898177;29;20417;-74
2021/11/09 10:42:25;;;;;;;1.50;0.80;;;;;;;14.29;40.76;99786.09;4897921;29;20032;-72
2021/11/09 10:45:00;;;;;;;0.98;0.70;;;;;;;14.57;41.14;99773.47;4896933;29;20029;-72
2021/11/09 10:47:29;;;;;;;0.98;0.57;;;;;;;14.29;40.94;99763.47;4878513;29;20013;-72
2021/11/09 10:49:56;;;;;;;1.55;0.77;;;;;;;14.15;40.79;99763.72;4894521;29;20080;-75
2021/11/09 10:52:31;;;;;;;1.05;0.60;;;;;;;13.51;43.27;99769.06;4897786;29;20035;-76
2021/11/09 10:55:13;;;;;;;5.55;2.05;;;;;;;13.69;41.35;99770.56;4898110;29;20481;-75
2021/11/09 11:00:34;;;;;;;1.20;0.73;;;;;;;14.88;40.00;99763.31;4897963;29;20025;-74
2021/11/09 11:03:27;;;;;;;0.77;0.57;;;;;;;14.85;40.52;99764.25;4897691;29;20032;-74
2021/11/09 11:06:16;;;;;;;2.20;0.50;;;;;;;14.17;41.81;99768.91;4897579;29;20020;-76
2021/11/09 11:08:42;;;;;;;0.40;0.40;;;;;;;15.83;39.53;99745.63;4897594;29;20037;-73
2021/11/09 11:11:30;;;;;;;5.55;1.00;;;;;;;15.06;38.67;99762.94;4897534;29;20043;-74
2021/11/09 11:14:05;;;;;;;0.68;0.52;;;;;;;13.96;40.24;99761.44;4897477;29;20474;-74
2021/11/09 11:16:31;;;;;;;0.75;0.45;;;;;;;14.48;39.41;99753.63;4888600;29;20028;-75
2021/11/09 11:18:56;;;;;;;0.90;0.68;;;;;;;14.34;40.09;99763.41;4889537;29;20039;-73
2021/11/09 11:21:26;;;;;;;0.50;0.50;;;;;;;13.79;40.80;99766.91;4895989;29;20486;-75
2021/11/09 11:23:52;;;;;;;0.50;0.50;;;;;;;14.21;40.74;99761.88;4897056;29;20510;-75
2021/11/09 11:26:19;;;;;;;1.25;1.15;;;;;;;15.42;38.38;99750.00;4895954;29;20033;-76
2021/11/09 11:28:47;;;;;;;0.60;0.60;;;;;;;15.61;37.91;99748.69;4897303;29;20450;-74
2021/11/09 11:31:14;;;;;;;4.38;0.50;;;;;;;14.46;39.37;99750.16;4897083;29;20106;-73
2021/11/09 11:33:41;;;;;;;3.42;0.93;;;;;;;15.47;38.18;99742.91;4923786;23;20063;-77
2021/11/09 11:36:06;;;;;;;0.50;0.50;;;;;;;14.51;38.90;99743.16;4878376;29;20057;-77
2021/11/09 11:38:34;;;;;;;0.63;0.35;;;;;;;15.47;37.59;99748.13;4878285;29;20041;-77
2021/11/09 11:41:02;;;;;;;0.63;0.63;;;;;;;15.27;38.11;99730.28;4877143;29;20462;-77
2021/11/09 11:43:50;;;;;;;0.35;0.25;;;;;;;14.69;38.34;99728.88;4878302;29;20116;-77
2021/11/09 11:46:36;;;;;;;0.85;0.50;;;;;;;13.57;41.00;99730.75;4880764;29;20031;-77
2021/11/09 11:49:04;;;;;;;0.80;0.80;;;;;;;14.74;39.66;99718.34;4888883;29;20471;-77
2021/11/09 11:51:32;;;;;;;1.02;0.70;;;;;;;14.29;40.44;99713.94;4896827;29;20035;-70
2021/11/09 11:53:57;;;;;;;2.58;1.48;;;;;;;15.66;37.49;99702.47;4896839;29;20036;-70
2021/11/09 11:56:38;;;;;;;3.25;0.82;;;;;;;14.79;38.70;99706.06;4896765;29;20028;-70
2021/11/09 11:59:04;;;;;;;0.68;0.52;;;;;;;15.68;36.52;99700.66;4896965;29;20060;-68
2021/11/09 12:01:44;;;;;;;0.90;0.75;;;;;;;15.64;36.82;99696.41;4896624;29;20400;-68
2021/11/09 12:04:10;;;;;;;0.52;0.52;;;;;;;14.19;39.14;99704.56;4896906;29;20044;-67
2021/11/09 12:06:50;;;;;;;0.50;0.50;;;;;;;12.64;42.90;99703.34;4896752;29;20419;-67
2021/11/09 12:09:34;;;;;;;0.43;0.43;;;;;;;12.48;44.11;99710.47;4896858;29;20476;-67
2021/11/09 12:12:19;;;;;;;0.57;0.55;;;;;;;12.35;44.37;99706.25;4896699;29;20403;-67
2021/11/09 12:14:45;;;;;;;2.28;1.17;;;;;;;12.23;44.97;99706.38;4896630;29;20028;-67
2021/11/09 12:17:12;;;;;;;0.60;0.55;;;;;;;11.80;45.44;99701.53;4887606;29;20040;-67
2021/11/09 12:19:39;;;;;;;0.52;0.52;;;;;;;11.32;46.67;99703.63;4890959;29;20075;-67
2021/11/09 12:22:11;;;;;;;0.50;0.50;;;;;;;11.35;46.98;99698.38;4896306;29;20044;-67
2021/11/09 12:24:47;;;;;;;0.45;0.45;;;;;;;11.01;47.41;99708.09;4896938;29;20443;-67
2021/11/09 12:27:12;;;;;;;0.50;0.50;;;;;;;11.26;47.70;99714.00;4896771;29;20056;-67
2021/11/09 12:29:44;;;;;;;0.50;0.50;;;;;;;11.37;47.29;99703.59;4900311;29;20033;-67
2021/11/09 12:32:30;;;;;;;1.02;1.02;;;;;;;11.64;47.70;99705.13;4900017;29;20489;-68
2021/11/09 12:35:10;;;;;;;2.90;1.75;;;;;;;11.58;46.67;99711.22;4900259;29;20108;-67
2021/11/09 12:37:42;;;;;;;0.77;0.77;;;;;;;11.42;46.66;99710.47;4900484;29;20040;-67
2021/11/09 12:40:39;;;;;;;0.70;0.70;;;;;;;11.19;47.54;99701.94;4900449;29;20111;-67
2021/11/09 12:43:17;;;;;;;0.40;0.40;;;;;;;11.34;46.78;99696.66;4899820;29;20486;-67
2021/11/09 12:45:52;;;;;;;1.75;1.00;;;;;;;11.28;47.62;99702.75;4894857;29;20064;-67
2021/11/09 12:48:25;;;;;;;0.52;0.52;;;;;;;11.23;47.17;99688.09;4891727;29;20028;-67
2021/11/09 12:50:54;;;;;;;3.35;0.55;;;;;;;11.55;47.92;99686.13;4900123;29;20035;-67
2021/11/09 12:53:22;;;;;;;0.40;0.40;;;;;;;10.93;47.58;99692.59;4900308;29;20060;-67
2021/11/09 12:55:58;;;;;;;0.57;0.50;;;;;;;10.84;47.84;99700.41;4899826;29;20084;-67
2021/11/09 12:58:25;;;;;;;0.70;0.70;;;;;;;11.20;47.21;99688.09;4898696;29;20116;-68
2021/11/09 13:03:55;;;;;;;1.55;1.45;;;;;;;11.14;48.69;99693.34;4899844;29;20054;-67
2021/11/09 13:09:24;;;;;;;1.35;0.73;;;;;;;11.18;47.87;99689.88;4899899;29;20044;-67
2021/11/09 13:11:54;;;;;;;0.82;0.82;;;;;;;11.04;47.96;99677.81;4899724;29;20092;-67
2021/11/09 13:14:21;;;;;;;0.75;0.50;;;;;;;10.82;47.43;99690.00;4899468;29;20067;-67
2021/11/09 13:16:49;;;;;;;0.75;0.75;;;;;;;10.79;48.71;99681.41;4892308;29;20530;-67
2021/11/09 13:19:17;;;;;;;4.03;0.43;;;;;;;10.65;48.95;99678.00;4891550;29;20039;-68
2021/11/09 13:21:51;;;;;;;1.80;1.00;;;;;;;10.78;48.64;99680.56;4899419;29;20069;-68
2021/11/09 13:24:19;;;;;;;4.35;1.55;;;;;;;10.71;47.83;99677.97;4899440;29;20071;-68
2021/11/09 13:26:53;;;;;;;0.95;0.93;;;;;;;10.81;48.10;99664.09;4899428;29;20052;-68
2021/11/09 13:29:21;;;;;;;0.50;0.50;;;;;;;10.66;47.85;99669.38;4899441;29;20285;-68
2021/11/09 13:31:46;;;;;;;0.50;0.50;;;;;;;10.76;48.22;99665.88;4899300;29;20161;-68
2021/11/09 13:34:12;;;;;;;0.70;0.70;;;;;;;10.91;47.96;99659.75;4899150;29;20122;-68
2021/11/09 13:36:38;;;;;;;0.40;0.40;;;;;;;10.82;48.52;99652.88;4899261;29;20036;-68
2021/11/09 13:39:03;;;;;;;2.90;1.52;;;;;;;10.90;48.26;99658.88;4898392;29;20180;-68
2021/11/09 13:41:31;;;;;;;0.75;0.75;;;;;;;10.82;48.49;99665.81;4898606;29;20461;-68
2021/11/09 13:44:09;;;;;;;0.90;0.68;;;;;;;10.71;48.44;99662.44;4899418;29;20091;-68
2021/11/09 13:46:38;;;;;;;0.95;0.90;;;;;;;10.64;47.90;99676.28;4891764;29;20028;-68
2021/11/09 13:49:13;;;;;;;2.60;1.40;;;;;;;10.81;47.60;99679.66;4891304;29;20430;-69
2021/11/09 13:51:49;;;;;;;0.60;0.60;;;;;;;10.71;48.39;99662.44;4898862;29;20417;-68
2021/11/09 13:54:19;;;;;;;1.08;0.93;;;;;;;10.43;48.20;99661.66;4899155;29;20032;-68
2021/11/09 13:56:48;;;;;;;0.47;0.47;;;;;;;10.45;49.14;99660.81;4898719;29;20017;-68
2021/11/09 13:59:26;;;;;;;0.50;0.50;;;;;;;10.49;48.62;99657.34;4899023;29;20073;-68
2021/11/09 14:02:13;;;;;;;0.70;0.70;;;;;;;10.41;49.03;99643.53;4898707;29;20257;-68
2021/11/09 14:10:20;;;;;;;0.73;0.73;;;;;;;10.44;49.27;99643.53;4898905;29;20028;-68
2021/11/09 14:13:00;;;;;;;1.88;1.02;;;;;;;10.40;48.91;99636.66;4898279;29;20065;-68
2021/11/09 14:18:14;;;;;;;0.40;0.40;;;;;;;10.47;49.70;99648.69;4889521;29;20506;-68
2021/11/09 14:21:13;;;;;;;0.68;0.68;;;;;;;10.36;49.67;99650.47;4898499;29;20032;-68
2021/11/09 14:23:41;;;;;;;1.15;1.05;;;;;;;10.30;49.78;99640.13;4907175;29;20115;-68
2021/11/09 14:26:20;;;;;;;1.02;1.00;;;;;;;10.19;49.61;99631.47;4898345;29;20141;-68
2021/11/09 22:42:28;;;;;;;4.40;2.15;;;;;;;1.31;95.47;99678.53;4984318;28;20792;-82
2021/11/09 22:44:54;;;;;;;1.42;1.40;;;;;;;1.21;96.82;99677.38;4947831;28;20080;-82
2021/11/09 22:47:19;;;;;;;1.52;1.52;;;;;;;1.15;97.47;99677.13;5017460;28;20044;-82
2021/11/09 22:49:45;;;;;;;3.03;1.95;;;;;;;1.16;97.85;99678.91;5016015;28;20022;-82
2021/11/09 22:52:10;;;;;;;2.85;2.58;;;;;;;1.12;97.97;99671.94;5010933;28;20389;-82
2021/11/09 22:54:35;;;;;;;1.40;1.30;;;;;;;1.19;97.96;99676.44;5009622;28;20032;-82
2021/11/09 22:57:01;;;;;;;2.40;1.35;;;;;;;1.10;98.42;99683.78;5009386;28;20081;-82
2021/11/09 22:59:26;;;;;;;2.97;2.22;;;;;;;1.13;98.85;99678.78;5009507;28;20034;-82
2021/11/09 23:01:52;;;;;;;1.85;1.80;;;;;;;1.10;98.97;99673.56;5008968;28;20053;-82
2021/11/09 23:04:17;;;;;;;1.85;1.75;;;;;;;1.12;99.34;99669.41;5009321;28;20121;-82
2021/11/09 23:06:43;;;;;;;1.30;1.20;;;;;;;1.16;99.43;99662.69;5009370;28;20021;-82
2021/11/09 23:09:08;;;;;;;1.67;1.58;;;;;;;1.10;99.48;99660.81;5009169;28;20033;-82
2021/11/09 23:11:34;;;;;;;2.75;2.55;;;;;;;1.12;99.45;99671.94;4961664;28;20410;-82
2021/11/09 23:14:00;;;;;;;2.38;2.22;;;;;;;1.05;99.25;99662.34;5008986;28;20026;-83
2021/11/09 23:16:25;;;;;;;1.00;1.00;;;;;;;0.93;99.60;99669.59;5012592;28;20101;-82
2021/11/09 23:18:50;;;;;;;2.35;1.92;;;;;;;0.95;99.66;99673.03;5013340;28;20034;-82
2021/11/09 23:21:16;;;;;;;1.98;1.67;;;;;;;0.84;100.00;99669.25;5016828;28;20022;-82
2021/11/09 23:23:41;;;;;;;1.02;1.02;;;;;;;0.85;99.94;99668.44;5008794;28;20037;-82
2021/11/09 23:26:07;;;;;;;1.67;1.67;;;;;;;0.83;100.00;99672.63;5008960;28;20026;-82
2021/11/09 23:28:32;;;;;;;3.50;2.63;;;;;;;0.77;100.00;99663.94;5008815;28;20030;-82
2021/11/09 23:30:58;;;;;;;2.67;2.47;;;;;;;0.79;100.00;99668.22;5008849;28;20455;-81
2021/11/09 23:33:23;;;;;;;2.42;2.22;;;;;;;0.80;100.00;99662.31;5008911;28;20030;-82
2021/11/09 23:35:49;;;;;;;1.48;1.38;;;;;;;0.92;100.00;99668.72;5008694;28;20026;-82
2021/11/09 23:38:15;;;;;;;1.48;1.48;;;;;;;0.88;99.84;99678.75;5008737;28;20030;-82
2021/11/09 23:40:41;;;;;;;1.42;1.33;;;;;;;0.94;99.99;99676.41;5008373;28;20037;-82
2021/11/09 23:43:07;;;;;;;5.88;2.40;;;;;;;0.99;99.62;99664.69;5008479;28;20072;-82
2021/11/09 23:45:33;;;;;;;1.50;1.50;;;;;;;0.98;99.89;99666.38;5008395;28;20101;-82
2021/11/09 23:48:00;;;;;;;1.40;1.35;;;;;;;1.54;100.00;99672.47;5016705;28;20136;-82
2021/11/09 23:50:26;;;;;;;1.42;1.35;;;;;;;1.32;99.39;99669.19;5016358;28;20022;-82
2021/11/09 23:52:52;;;;;;;1.50;1.48;;;;;;;1.19;99.22;99666.22;5000491;28;20033;-82
2021/11/09 23:55:21;;;;;;;4.07;3.72;;;;;;;1.09;99.13;99676.94;4995277;28;20621;-82
2021/11/09 23:57:47;;;;;;;1.33;1.33;;;;;;;1.08;99.20;99665.00;4995486;28;20030;-82
